sensor_id;sensor_type;location;lat;lon;timestamp;temperature;humidity
31038;DHT22;17702;47.590;7.666;2022-12-20T00:00:13;6.30;99.90
31038;DHT22;17702;47.590;7.666;2022-12-20T00:02:39;6.30;99.90
31038;DHT22;17702;47.590;7.666;2022-12-20T00:05:04;6.30;99.90
31038;DHT22;17702;47.590;7.666;2022-12-20T00:07:30;6.30;99.90
31038;DHT22;17702;47.590;7.666;2022-12-20T00:09:56;6.30;99.90
31038;DHT22;17702;47.590;7.666;2022-12-20T00:12:21;6.30;99.90
31038;DHT22;17702;47.590;7.666;2022-12-20T00:14:47;6.30;99.90
31038;DHT22;17702;47.590;7.666;2022-12-20T00:17:12;6.30;99.90
31038;DHT22;17702;47.590;7.666;2022-12-20T00:19:38;6.30;99.90
31038;DHT22;17702;47.590;7.666;2022-12-20T00:22:03;6.30;99.90
31038;DHT22;17702;47.590;7.666;2022-12-20T00:24:29;6.30;99.90
31038;DHT22;17702;47.590;7.666;2022-12-20T00:26:54;6.30;99.90
31038;DHT22;17702;47.590;7.666;2022-12-20T00:29:20;6.30;99.90
31038;DHT22;17702;47.590;7.666;2022-12-20T00:31:45;6.20;99.90
31038;DHT22;17702;47.590;7.666;2022-12-20T00:34:11;6.20;99.90
31038;DHT22;17702;47.590;7.666;2022-12-20T00:36:38;6.20;99.90
31038;DHT22;17702;47.590;7.666;2022-12-20T00:39:04;6.10;99.90
31038;DHT22;17702;47.590;7.666;2022-12-20T00:41:31;6.10;99.90
31038;DHT22;17702;47.590;7.666;2022-12-20T00:43:56;6.10;99.90
31038;DHT22;17702;47.590;7.666;2022-12-20T00:46:22;6.10;99.90
31038;DHT22;17702;47.590;7.666;2022-12-20T00:48:49;6.10;99.90
31038;DHT22;17702;47.590;7.666;2022-12-20T00:51:15;6.20;99.90
31038;DHT22;17702;47.590;7.666;2022-12-20T00:53:41;6.20;99.90
31038;DHT22;17702;47.590;7.666;2022-12-20T00:56:07;6.20;99.90
31038;DHT22;17702;47.590;7.666;2022-12-20T00:58:33;6.20;99.90
31038;DHT22;17702;47.590;7.666;2022-12-20T01:00:59;6.20;99.90
31038;DHT22;17702;47.590;7.666;2022-12-20T01:03:25;6.30;99.90
31038;DHT22;17702;47.590;7.666;2022-12-20T01:05:57;6.20;99.90
31038;DHT22;17702;47.590;7.666;2022-12-20T01:08:24;6.30;99.90
31038;DHT22;17702;47.590;7.666;2022-12-20T01:11:07;6.30;99.90
31038;DHT22;17702;47.590;7.666;2022-12-20T01:13:33;6.30;99.90
31038;DHT22;17702;47.590;7.666;2022-12-20T01:16:06;6.30;99.90
31038;DHT22;17702;47.590;7.666;2022-12-20T01:18:32;6.30;99.90
31038;DHT22;17702;47.590;7.666;2022-12-20T01:21:05;6.40;99.90
31038;DHT22;17702;47.590;7.666;2022-12-20T01:23:30;6.40;99.90
31038;DHT22;17702;47.590;7.666;2022-12-20T01:25:59;6.40;99.90
31038;DHT22;17702;47.590;7.666;2022-12-20T01:28:26;6.40;99.90
31038;DHT22;17702;47.590;7.666;2022-12-20T01:30:51;6.50;99.90
31038;DHT22;17702;47.590;7.666;2022-12-20T01:33:17;6.50;99.90
31038;DHT22;17702;47.590;7.666;2022-12-20T01:35:53;6.50;99.90
31038;DHT22;17702;47.590;7.666;2022-12-20T01:38:18;6.50;99.90
31038;DHT22;17702;47.590;7.666;2022-12-20T01:40:44;6.40;99.90
31038;DHT22;17702;47.590;7.666;2022-12-20T01:43:11;6.40;99.90
31038;DHT22;17702;47.590;7.666;2022-12-20T01:45:36;6.50;99.90
31038;DHT22;17702;47.590;7.666;2022-12-20T01:48:02;6.50;99.90
31038;DHT22;17702;47.590;7.666;2022-12-20T01:50:27;6.50;99.90
31038;DHT22;17702;47.590;7.666;2022-12-20T01:52:53;6.50;99.90
31038;DHT22;17702;47.590;7.666;2022-12-20T01:55:19;6.50;99.90
31038;DHT22;17702;47.590;7.666;2022-12-20T01:57:47;6.50;99.90
31038;DHT22;17702;47.590;7.666;2022-12-20T02:00:13;6.60;99.90
31038;DHT22;17702;47.590;7.666;2022-12-20T02:02:39;6.60;99.90
31038;DHT22;17702;47.590;7.666;2022-12-20T02:05:05;6.60;99.90
31038;DHT22;17702;47.590;7.666;2022-12-20T02:07:31;6.60;99.90
31038;DHT22;17702;47.590;7.666;2022-12-20T02:09:58;6.50;99.90
31038;DHT22;17702;47.590;7.666;2022-12-20T02:12:26;6.50;99.90
31038;DHT22;17702;47.590;7.666;2022-12-20T02:22:25;6.60;99.90
31038;DHT22;17702;47.590;7.666;2022-12-20T02:30:04;6.70;99.90
31038;DHT22;17702;47.590;7.666;2022-12-20T02:35:10;6.70;99.90
31038;DHT22;17702;47.590;7.666;2022-12-20T02:37:45;6.70;99.90
31038;DHT22;17702;47.590;7.666;2022-12-20T02:40:11;6.80;99.90
31038;DHT22;17702;47.590;7.666;2022-12-20T02:42:36;6.80;99.90
31038;DHT22;17702;47.590;7.666;2022-12-20T02:45:04;6.80;99.90
31038;DHT22;17702;47.590;7.666;2022-12-20T02:47:52;6.80;99.90
31038;DHT22;17702;47.590;7.666;2022-12-20T02:50:23;6.80;99.90
31038;DHT22;17702;47.590;7.666;2022-12-20T02:52:50;6.80;99.90
31038;DHT22;17702;47.590;7.666;2022-12-20T02:55:16;6.80;99.90
31038;DHT22;17702;47.590;7.666;2022-12-20T02:57:50;6.80;99.90
31038;DHT22;17702;47.590;7.666;2022-12-20T03:00:20;6.80;99.90
31038;DHT22;17702;47.590;7.666;2022-12-20T03:02:46;6.70;99.90
31038;DHT22;17702;47.590;7.666;2022-12-20T03:05:31;6.70;99.90
31038;DHT22;17702;47.590;7.666;2022-12-20T03:07:58;6.70;99.90
31038;DHT22;17702;47.590;7.666;2022-12-20T03:10:24;6.70;99.90
31038;DHT22;17702;47.590;7.666;2022-12-20T03:12:50;6.70;99.90
31038;DHT22;17702;47.590;7.666;2022-12-20T03:15:15;6.70;99.90
31038;DHT22;17702;47.590;7.666;2022-12-20T03:17:41;6.70;99.90
31038;DHT22;17702;47.590;7.666;2022-12-20T03:20:06;6.70;99.90
31038;DHT22;17702;47.590;7.666;2022-12-20T03:22:32;6.70;99.90
31038;DHT22;17702;47.590;7.666;2022-12-20T03:24:58;6.70;99.90
31038;DHT22;17702;47.590;7.666;2022-12-20T03:27:24;6.70;99.90
31038;DHT22;17702;47.590;7.666;2022-12-20T03:29:52;6.80;99.90
31038;DHT22;17702;47.590;7.666;2022-12-20T03:32:18;6.70;99.90
31038;DHT22;17702;47.590;7.666;2022-12-20T03:34:43;6.80;99.90
31038;DHT22;17702;47.590;7.666;2022-12-20T03:37:09;6.80;99.90
31038;DHT22;17702;47.590;7.666;2022-12-20T03:39:34;6.70;99.90
31038;DHT22;17702;47.590;7.666;2022-12-20T03:42:00;6.70;99.90
31038;DHT22;17702;47.590;7.666;2022-12-20T03:44:25;6.70;99.90
31038;DHT22;17702;47.590;7.666;2022-12-20T03:46:51;6.70;99.90
31038;DHT22;17702;47.590;7.666;2022-12-20T03:49:16;6.70;99.90
31038;DHT22;17702;47.590;7.666;2022-12-20T03:51:42;6.70;99.90
31038;DHT22;17702;47.590;7.666;2022-12-20T03:54:08;6.70;99.90
31038;DHT22;17702;47.590;7.666;2022-12-20T03:56:33;6.70;99.90
31038;DHT22;17702;47.590;7.666;2022-12-20T03:58:59;6.80;99.90
31038;DHT22;17702;47.590;7.666;2022-12-20T04:01:25;6.80;99.90
31038;DHT22;17702;47.590;7.666;2022-12-20T04:03:51;6.80;99.90
31038;DHT22;17702;47.590;7.666;2022-12-20T04:06:17;6.70;99.90
31038;DHT22;17702;47.590;7.666;2022-12-20T04:08:43;6.70;99.90
31038;DHT22;17702;47.590;7.666;2022-12-20T04:11:08;6.80;99.90
31038;DHT22;17702;47.590;7.666;2022-12-20T04:13:46;6.80;99.90
31038;DHT22;17702;47.590;7.666;2022-12-20T04:16:12;6.70;99.90
31038;DHT22;17702;47.590;7.666;2022-12-20T04:18:38;6.70;99.90
31038;DHT22;17702;47.590;7.666;2022-12-20T04:21:04;6.70;99.90
31038;DHT22;17702;47.590;7.666;2022-12-20T04:23:32;6.80;99.90
31038;DHT22;17702;47.590;7.666;2022-12-20T04:25:57;6.70;99.90
31038;DHT22;17702;47.590;7.666;2022-12-20T04:28:23;6.70;99.90
31038;DHT22;17702;47.590;7.666;2022-12-20T04:30:48;6.70;99.90
31038;DHT22;17702;47.590;7.666;2022-12-20T04:33:14;6.70;99.90
31038;DHT22;17702;47.590;7.666;2022-12-20T04:35:39;6.80;99.90
31038;DHT22;17702;47.590;7.666;2022-12-20T04:38:05;6.80;99.90
31038;DHT22;17702;47.590;7.666;2022-12-20T04:40:30;6.90;99.90
31038;DHT22;17702;47.590;7.666;2022-12-20T04:42:55;6.80;99.90
31038;DHT22;17702;47.590;7.666;2022-12-20T04:45:21;6.80;99.90
31038;DHT22;17702;47.590;7.666;2022-12-20T04:47:46;6.80;99.90
31038;DHT22;17702;47.590;7.666;2022-12-20T04:50:12;6.80;99.90
31038;DHT22;17702;47.590;7.666;2022-12-20T04:52:37;6.70;99.90
31038;DHT22;17702;47.590;7.666;2022-12-20T04:55:21;6.80;99.90
31038;DHT22;17702;47.590;7.666;2022-12-20T04:57:47;6.70;99.90
31038;DHT22;17702;47.590;7.666;2022-12-20T05:00:13;6.70;99.90
31038;DHT22;17702;47.590;7.666;2022-12-20T05:02:40;6.70;99.90
31038;DHT22;17702;47.590;7.666;2022-12-20T05:05:06;6.70;99.90
31038;DHT22;17702;47.590;7.666;2022-12-20T05:07:31;6.70;99.90
31038;DHT22;17702;47.590;7.666;2022-12-20T05:09:57;6.70;99.90
31038;DHT22;17702;47.590;7.666;2022-12-20T05:12:22;6.70;99.90
31038;DHT22;17702;47.590;7.666;2022-12-20T05:14:48;6.70;99.90
31038;DHT22;17702;47.590;7.666;2022-12-20T05:17:13;6.70;99.90
31038;DHT22;17702;47.590;7.666;2022-12-20T05:19:39;6.70;99.90
31038;DHT22;17702;47.590;7.666;2022-12-20T05:22:04;6.70;99.90
31038;DHT22;17702;47.590;7.666;2022-12-20T05:24:48;6.80;99.90
31038;DHT22;17702;47.590;7.666;2022-12-20T05:27:32;6.80;99.90
31038;DHT22;17702;47.590;7.666;2022-12-20T05:29:58;6.80;99.90
31038;DHT22;17702;47.590;7.666;2022-12-20T05:32:24;6.80;99.90
31038;DHT22;17702;47.590;7.666;2022-12-20T05:34:49;6.80;99.90
31038;DHT22;17702;47.590;7.666;2022-12-20T05:37:15;6.90;99.90
31038;DHT22;17702;47.590;7.666;2022-12-20T05:39:40;6.90;99.90
31038;DHT22;17702;47.590;7.666;2022-12-20T05:42:06;6.90;99.90
31038;DHT22;17702;47.590;7.666;2022-12-20T05:44:31;6.90;99.90
31038;DHT22;17702;47.590;7.666;2022-12-20T05:46:56;6.90;99.90
31038;DHT22;17702;47.590;7.666;2022-12-20T05:49:22;6.90;99.90
31038;DHT22;17702;47.590;7.666;2022-12-20T05:51:47;6.90;99.90
31038;DHT22;17702;47.590;7.666;2022-12-20T05:54:13;6.90;99.90
31038;DHT22;17702;47.590;7.666;2022-12-20T05:56:38;7.00;99.90
31038;DHT22;17702;47.590;7.666;2022-12-20T05:59:04;7.00;99.90
31038;DHT22;17702;47.590;7.666;2022-12-20T06:01:29;7.00;99.80
31038;DHT22;17702;47.590;7.666;2022-12-20T06:03:55;7.00;99.90
31038;DHT22;17702;47.590;7.666;2022-12-20T06:06:20;6.90;99.90
31038;DHT22;17702;47.590;7.666;2022-12-20T06:08:46;6.90;99.90
31038;DHT22;17702;47.590;7.666;2022-12-20T06:11:12;7.00;99.90
31038;DHT22;17702;47.590;7.666;2022-12-20T06:13:37;6.90;99.90
31038;DHT22;17702;47.590;7.666;2022-12-20T06:16:03;7.00;99.90
31038;DHT22;17702;47.590;7.666;2022-12-20T06:18:28;7.00;99.90
31038;DHT22;17702;47.590;7.666;2022-12-20T06:20:54;7.00;99.90
31038;DHT22;17702;47.590;7.666;2022-12-20T06:23:19;7.00;99.90
31038;DHT22;17702;47.590;7.666;2022-12-20T06:25:45;7.00;99.90
31038;DHT22;17702;47.590;7.666;2022-12-20T06:28:11;7.10;99.80
31038;DHT22;17702;47.590;7.666;2022-12-20T06:30:36;7.10;99.60
31038;DHT22;17702;47.590;7.666;2022-12-20T06:33:02;7.00;99.60
31038;DHT22;17702;47.590;7.666;2022-12-20T06:35:28;7.10;99.60
31038;DHT22;17702;47.590;7.666;2022-12-20T06:37:53;7.10;99.50
31038;DHT22;17702;47.590;7.666;2022-12-20T06:40:19;7.10;99.60
31038;DHT22;17702;47.590;7.666;2022-12-20T06:42:44;7.10;99.60
31038;DHT22;17702;47.590;7.666;2022-12-20T06:45:10;7.10;99.50
31038;DHT22;17702;47.590;7.666;2022-12-20T06:47:35;7.10;99.80
31038;DHT22;17702;47.590;7.666;2022-12-20T06:50:01;7.10;99.70
31038;DHT22;17702;47.590;7.666;2022-12-20T06:52:27;7.10;99.70
31038;DHT22;17702;47.590;7.666;2022-12-20T06:54:53;7.10;99.80
31038;DHT22;17702;47.590;7.666;2022-12-20T06:57:18;7.10;99.60
31038;DHT22;17702;47.590;7.666;2022-12-20T06:59:44;7.10;99.90
31038;DHT22;17702;47.590;7.666;2022-12-20T07:02:10;7.10;99.80
31038;DHT22;17702;47.590;7.666;2022-12-20T07:04:36;7.10;99.90
31038;DHT22;17702;47.590;7.666;2022-12-20T07:07:02;7.20;99.40
31038;DHT22;17702;47.590;7.666;2022-12-20T07:09:28;7.20;99.50
31038;DHT22;17702;47.590;7.666;2022-12-20T07:11:54;7.20;99.30
31038;DHT22;17702;47.590;7.666;2022-12-20T07:14:19;7.30;99.40
31038;DHT22;17702;47.590;7.666;2022-12-20T07:16:45;7.30;99.40
31038;DHT22;17702;47.590;7.666;2022-12-20T07:19:11;7.20;99.10
31038;DHT22;17702;47.590;7.666;2022-12-20T07:21:37;7.30;99.40
31038;DHT22;17702;47.590;7.666;2022-12-20T07:24:03;7.30;99.50
31038;DHT22;17702;47.590;7.666;2022-12-20T07:26:28;7.20;98.90
31038;DHT22;17702;47.590;7.666;2022-12-20T07:28:54;7.30;99.20
31038;DHT22;17702;47.590;7.666;2022-12-20T07:31:19;7.30;99.20
31038;DHT22;17702;47.590;7.666;2022-12-20T07:33:45;7.30;99.00
31038;DHT22;17702;47.590;7.666;2022-12-20T07:36:11;7.30;98.90
31038;DHT22;17702;47.590;7.666;2022-12-20T07:38:37;7.30;99.10
31038;DHT22;17702;47.590;7.666;2022-12-20T07:41:06;7.40;98.90
31038;DHT22;17702;47.590;7.666;2022-12-20T07:43:32;7.40;98.90
31038;DHT22;17702;47.590;7.666;2022-12-20T07:45:57;7.40;99.10
31038;DHT22;17702;47.590;7.666;2022-12-20T07:48:23;7.40;99.00
31038;DHT22;17702;47.590;7.666;2022-12-20T07:50:51;7.40;99.10
31038;DHT22;17702;47.590;7.666;2022-12-20T07:53:18;7.40;98.90
31038;DHT22;17702;47.590;7.666;2022-12-20T07:55:43;7.40;98.60
31038;DHT22;17702;47.590;7.666;2022-12-20T07:58:09;7.50;98.80
31038;DHT22;17702;47.590;7.666;2022-12-20T08:00:36;7.50;98.70
31038;DHT22;17702;47.590;7.666;2022-12-20T08:03:10;7.50;98.60
31038;DHT22;17702;47.590;7.666;2022-12-20T08:05:37;7.50;98.60
31038;DHT22;17702;47.590;7.666;2022-12-20T08:08:05;7.50;98.80
31038;DHT22;17702;47.590;7.666;2022-12-20T08:10:31;7.50;98.80
31038;DHT22;17702;47.590;7.666;2022-12-20T08:12:57;8.30;99.90
31038;DHT22;17702;47.590;7.666;2022-12-20T08:15:23;8.30;97.20
31038;DHT22;17702;47.590;7.666;2022-12-20T08:17:49;8.10;97.60
31038;DHT22;17702;47.590;7.666;2022-12-20T08:20:14;7.90;97.80
31038;DHT22;17702;47.590;7.666;2022-12-20T08:22:40;7.70;98.30
31038;DHT22;17702;47.590;7.666;2022-12-20T08:25:05;7.70;98.60
31038;DHT22;17702;47.590;7.666;2022-12-20T08:27:31;7.60;98.80
31038;DHT22;17702;47.590;7.666;2022-12-20T08:29:58;7.60;99.00
31038;DHT22;17702;47.590;7.666;2022-12-20T08:32:23;7.60;98.90
31038;DHT22;17702;47.590;7.666;2022-12-20T08:34:49;7.60;98.90
31038;DHT22;17702;47.590;7.666;2022-12-20T08:37:15;7.60;99.10
31038;DHT22;17702;47.590;7.666;2022-12-20T08:39:40;7.60;98.70
31038;DHT22;17702;47.590;7.666;2022-12-20T08:42:06;7.70;98.80
31038;DHT22;17702;47.590;7.666;2022-12-20T08:44:31;7.70;98.90
31038;DHT22;17702;47.590;7.666;2022-12-20T08:46:57;7.70;98.70
31038;DHT22;17702;47.590;7.666;2022-12-20T08:49:22;7.70;98.40
31038;DHT22;17702;47.590;7.666;2022-12-20T08:51:48;7.70;98.60
31038;DHT22;17702;47.590;7.666;2022-12-20T08:54:13;7.80;98.70
31038;DHT22;17702;47.590;7.666;2022-12-20T08:56:39;7.80;98.40
31038;DHT22;17702;47.590;7.666;2022-12-20T08:59:04;8.40;99.90
31038;DHT22;17702;47.590;7.666;2022-12-20T09:01:30;9.90;93.70
31038;DHT22;17702;47.590;7.666;2022-12-20T09:03:57;9.70;93.20
31038;DHT22;17702;47.590;7.666;2022-12-20T09:06:23;9.30;94.10
31038;DHT22;17702;47.590;7.666;2022-12-20T09:08:49;9.00;94.60
31038;DHT22;17702;47.590;7.666;2022-12-20T09:11:24;8.80;95.50
31038;DHT22;17702;47.590;7.666;2022-12-20T09:13:50;8.50;96.00
31038;DHT22;17702;47.590;7.666;2022-12-20T09:16:17;8.40;96.30
31038;DHT22;17702;47.590;7.666;2022-12-20T09:18:46;8.30;96.60
31038;DHT22;17702;47.590;7.666;2022-12-20T09:21:12;8.20;96.70
31038;DHT22;17702;47.590;7.666;2022-12-20T09:23:40;8.20;97.00
31038;DHT22;17702;47.590;7.666;2022-12-20T09:26:07;8.20;97.10
31038;DHT22;17702;47.590;7.666;2022-12-20T09:28:33;8.10;97.10
31038;DHT22;17702;47.590;7.666;2022-12-20T09:30:59;8.10;97.30
31038;DHT22;17702;47.590;7.666;2022-12-20T09:33:25;8.10;97.40
31038;DHT22;17702;47.590;7.666;2022-12-20T09:35:50;8.10;97.20
31038;DHT22;17702;47.590;7.666;2022-12-20T09:38:16;8.10;97.40
31038;DHT22;17702;47.590;7.666;2022-12-20T09:40:45;8.10;97.30
31038;DHT22;17702;47.590;7.666;2022-12-20T09:43:12;8.10;97.50
31038;DHT22;17702;47.590;7.666;2022-12-20T09:45:38;8.10;97.60
31038;DHT22;17702;47.590;7.666;2022-12-20T09:48:05;8.20;97.40
31038;DHT22;17702;47.590;7.666;2022-12-20T09:56:11;8.30;97.30
31038;DHT22;17702;47.590;7.666;2022-12-20T09:58:50;8.30;97.70
31038;DHT22;17702;47.590;7.666;2022-12-20T10:01:21;8.40;97.10
31038;DHT22;17702;47.590;7.666;2022-12-20T10:03:47;8.50;96.60
31038;DHT22;17702;47.590;7.666;2022-12-20T10:06:32;8.50;96.60
31038;DHT22;17702;47.590;7.666;2022-12-20T10:09:01;8.50;96.50
31038;DHT22;17702;47.590;7.666;2022-12-20T10:11:36;8.50;96.10
31038;DHT22;17702;47.590;7.666;2022-12-20T10:16:50;8.60;96.40
31038;DHT22;17702;47.590;7.666;2022-12-20T10:19:21;8.60;96.40
31038;DHT22;17702;47.590;7.666;2022-12-20T10:24:35;8.60;96.10
31038;DHT22;17702;47.590;7.666;2022-12-20T10:27:06;8.70;96.30
31038;DHT22;17702;47.590;7.666;2022-12-20T10:29:35;8.80;96.30
31038;DHT22;17702;47.590;7.666;2022-12-20T10:32:00;8.90;95.90
31038;DHT22;17702;47.590;7.666;2022-12-20T10:34:26;9.10;95.10
31038;DHT22;17702;47.590;7.666;2022-12-20T10:37:13;9.40;94.50
31038;DHT22;17702;47.590;7.666;2022-12-20T10:39:41;9.70;94.30
31038;DHT22;17702;47.590;7.666;2022-12-20T10:44:51;10.10;92.90
31038;DHT22;17702;47.590;7.666;2022-12-20T10:47:27;10.10;92.80
31038;DHT22;17702;47.590;7.666;2022-12-20T10:50:06;10.00;93.00
31038;DHT22;17702;47.590;7.666;2022-12-20T10:52:32;9.80;93.20
31038;DHT22;17702;47.590;7.666;2022-12-20T10:54:57;9.70;93.40
31038;DHT22;17702;47.590;7.666;2022-12-20T10:57:26;9.60;93.30
31038;DHT22;17702;47.590;7.666;2022-12-20T10:59:56;9.60;93.20
31038;DHT22;17702;47.590;7.666;2022-12-20T11:05:01;9.60;93.60
31038;DHT22;17702;47.590;7.666;2022-12-20T11:07:28;9.50;93.70
31038;DHT22;17702;47.590;7.666;2022-12-20T11:09:58;9.60;93.80
31038;DHT22;17702;47.590;7.666;2022-12-20T11:12:24;9.60;93.50
31038;DHT22;17702;47.590;7.666;2022-12-20T11:14:50;9.70;93.70
31038;DHT22;17702;47.590;7.666;2022-12-20T11:17:40;9.70;93.30
31038;DHT22;17702;47.590;7.666;2022-12-20T11:30:19;9.80;93.40
31038;DHT22;17702;47.590;7.666;2022-12-20T11:40:25;10.30;92.10
31038;DHT22;17702;47.590;7.666;2022-12-20T11:43:13;10.30;91.90
31038;DHT22;17702;47.590;7.666;2022-12-20T11:48:27;10.20;92.00
31038;DHT22;17702;47.590;7.666;2022-12-20T11:50:58;10.10;92.10
31038;DHT22;17702;47.590;7.666;2022-12-20T11:53:27;10.10;92.20
31038;DHT22;17702;47.590;7.666;2022-12-20T11:55:57;10.10;92.10
31038;DHT22;17702;47.590;7.666;2022-12-20T11:58:26;10.00;92.00
31038;DHT22;17702;47.590;7.666;2022-12-20T12:00:55;10.00;92.40
31038;DHT22;17702;47.590;7.666;2022-12-20T12:03:26;10.10;92.60
31038;DHT22;17702;47.590;7.666;2022-12-20T12:05:54;10.10;92.30
31038;DHT22;17702;47.590;7.666;2022-12-20T12:08:26;10.20;92.30
31038;DHT22;17702;47.590;7.666;2022-12-20T12:10:58;10.20;91.80
31038;DHT22;17702;47.590;7.666;2022-12-20T12:13:26;10.30;92.50
31038;DHT22;17702;47.590;7.666;2022-12-20T12:18:30;10.60;92.70
31038;DHT22;17702;47.590;7.666;2022-12-20T12:21:08;10.70;91.10
31038;DHT22;17702;47.590;7.666;2022-12-20T12:26:01;11.00;91.10
31038;DHT22;17702;47.590;7.666;2022-12-20T12:28:29;11.00;91.60
31038;DHT22;17702;47.590;7.666;2022-12-20T12:30:59;11.10;90.20
31038;DHT22;17702;47.590;7.666;2022-12-20T12:33:29;11.20;90.30
31038;DHT22;17702;47.590;7.666;2022-12-20T12:43:55;11.80;88.50
31038;DHT22;17702;47.590;7.666;2022-12-20T12:46:31;11.80;87.20
31038;DHT22;17702;47.590;7.666;2022-12-20T12:51:26;12.10;86.70
31038;DHT22;17702;47.590;7.666;2022-12-20T12:53:53;12.20;83.80
31038;DHT22;17702;47.590;7.666;2022-12-20T13:09:20;12.60;83.10
31038;DHT22;17702;47.590;7.666;2022-12-20T13:11:46;12.60;82.50
31038;DHT22;17702;47.590;7.666;2022-12-20T13:16:48;12.30;82.60
31038;DHT22;17702;47.590;7.666;2022-12-20T13:19:15;12.20;83.20
31038;DHT22;17702;47.590;7.666;2022-12-20T13:21:42;12.10;83.20
31038;DHT22;17702;47.590;7.666;2022-12-20T13:26:53;11.90;83.20
31038;DHT22;17702;47.590;7.666;2022-12-20T13:29:50;11.90;84.50
31038;DHT22;17702;47.590;7.666;2022-12-20T13:32:15;11.90;84.90
31038;DHT22;17702;47.590;7.666;2022-12-20T13:34:54;11.90;84.20
31038;DHT22;17702;47.590;7.666;2022-12-20T13:37:27;11.90;86.20
31038;DHT22;17702;47.590;7.666;2022-12-20T13:39:52;11.90;84.80
31038;DHT22;17702;47.590;7.666;2022-12-20T13:42:36;12.00;85.10
31038;DHT22;17702;47.590;7.666;2022-12-20T13:45:03;12.00;83.10
31038;DHT22;17702;47.590;7.666;2022-12-20T13:47:30;12.10;82.90
31038;DHT22;17702;47.590;7.666;2022-12-20T13:49:58;12.00;85.20
31038;DHT22;17702;47.590;7.666;2022-12-20T13:52:28;12.00;84.50
31038;DHT22;17702;47.590;7.666;2022-12-20T13:54:56;12.00;83.20
31038;DHT22;17702;47.590;7.666;2022-12-20T13:57:27;11.90;83.00
31038;DHT22;17702;47.590;7.666;2022-12-20T13:59:54;11.90;83.10
31038;DHT22;17702;47.590;7.666;2022-12-20T14:02:26;11.80;84.20
31038;DHT22;17702;47.590;7.666;2022-12-20T14:04:55;11.80;84.60
31038;DHT22;17702;47.590;7.666;2022-12-20T14:07:23;11.80;86.60
31038;DHT22;17702;47.590;7.666;2022-12-20T14:09:54;11.70;86.20
31038;DHT22;17702;47.590;7.666;2022-12-20T14:12:20;11.70;86.40
31038;DHT22;17702;47.590;7.666;2022-12-20T14:14:46;11.70;85.70
31038;DHT22;17702;47.590;7.666;2022-12-20T14:22:27;11.50;86.50
31038;DHT22;17702;47.590;7.666;2022-12-20T14:24:53;11.30;87.90
31038;DHT22;17702;47.590;7.666;2022-12-20T14:27:18;11.20;89.20
31038;DHT22;17702;47.590;7.666;2022-12-20T14:29:44;11.20;88.50
31038;DHT22;17702;47.590;7.666;2022-12-20T14:32:17;11.20;88.40
31038;DHT22;17702;47.590;7.666;2022-12-20T14:34:42;11.20;87.60
31038;DHT22;17702;47.590;7.666;2022-12-20T14:39:54;11.20;90.10
31038;DHT22;17702;47.590;7.666;2022-12-20T14:42:19;11.00;90.20
31038;DHT22;17702;47.590;7.666;2022-12-20T14:44:45;11.00;90.70
31038;DHT22;17702;47.590;7.666;2022-12-20T14:47:14;10.90;90.90
31038;DHT22;17702;47.590;7.666;2022-12-20T14:49:45;10.90;91.10
31038;DHT22;17702;47.590;7.666;2022-12-20T14:52:13;10.90;91.30
31038;DHT22;17702;47.590;7.666;2022-12-20T14:54:44;10.90;91.00
31038;DHT22;17702;47.590;7.666;2022-12-20T14:57:10;10.80;91.20
31038;DHT22;17702;47.590;7.666;2022-12-20T14:59:44;10.80;92.60
31038;DHT22;17702;47.590;7.666;2022-12-20T15:02:33;10.70;93.20
31038;DHT22;17702;47.590;7.666;2022-12-20T15:04:59;10.60;93.60
31038;DHT22;17702;47.590;7.666;2022-12-20T15:07:29;10.50;94.00
31038;DHT22;17702;47.590;7.666;2022-12-20T15:09:55;10.40;93.90
31038;DHT22;17702;47.590;7.666;2022-12-20T15:12:21;10.50;92.40
31038;DHT22;17702;47.590;7.666;2022-12-20T15:14:47;10.40;92.30
31038;DHT22;17702;47.590;7.666;2022-12-20T15:17:13;10.40;92.50
31038;DHT22;17702;47.590;7.666;2022-12-20T15:19:41;10.40;92.70
31038;DHT22;17702;47.590;7.666;2022-12-20T15:22:14;10.40;92.60
31038;DHT22;17702;47.590;7.666;2022-12-20T15:24:41;10.30;92.60
31038;DHT22;17702;47.590;7.666;2022-12-20T15:27:13;10.30;92.80
31038;DHT22;17702;47.590;7.666;2022-12-20T15:29:39;10.30;93.00
31038;DHT22;17702;47.590;7.666;2022-12-20T15:32:20;10.30;93.20
31038;DHT22;17702;47.590;7.666;2022-12-20T15:34:48;10.40;92.70
31038;DHT22;17702;47.590;7.666;2022-12-20T15:37:14;10.40;92.30
31038;DHT22;17702;47.590;7.666;2022-12-20T15:39:39;10.40;91.90
31038;DHT22;17702;47.590;7.666;2022-12-20T15:42:05;10.40;92.20
31038;DHT22;17702;47.590;7.666;2022-12-20T15:44:31;10.30;92.20
31038;DHT22;17702;47.590;7.666;2022-12-20T15:46:57;10.40;91.80
31038;DHT22;17702;47.590;7.666;2022-12-20T15:49:24;10.30;92.40
31038;DHT22;17702;47.590;7.666;2022-12-20T15:51:50;10.30;93.50
31038;DHT22;17702;47.590;7.666;2022-12-20T15:54:26;10.30;93.00
31038;DHT22;17702;47.590;7.666;2022-12-20T15:56:56;10.30;92.40
31038;DHT22;17702;47.590;7.666;2022-12-20T15:59:21;10.40;92.40
31038;DHT22;17702;47.590;7.666;2022-12-20T16:01:47;10.40;91.70
31038;DHT22;17702;47.590;7.666;2022-12-20T16:04:17;10.40;92.10
31038;DHT22;17702;47.590;7.666;2022-12-20T16:06:43;10.30;92.30
31038;DHT22;17702;47.590;7.666;2022-12-20T16:09:09;10.30;92.30
31038;DHT22;17702;47.590;7.666;2022-12-20T16:11:34;10.30;92.70
31038;DHT22;17702;47.590;7.666;2022-12-20T16:14:00;10.30;92.30
31038;DHT22;17702;47.590;7.666;2022-12-20T16:16:35;10.30;92.30
31038;DHT22;17702;47.590;7.666;2022-12-20T16:19:01;10.30;92.60
31038;DHT22;17702;47.590;7.666;2022-12-20T16:21:35;10.30;92.60
31038;DHT22;17702;47.590;7.666;2022-12-20T16:24:01;10.30;92.70
31038;DHT22;17702;47.590;7.666;2022-12-20T16:26:27;10.30;92.10
31038;DHT22;17702;47.590;7.666;2022-12-20T16:28:53;10.30;92.40
31038;DHT22;17702;47.590;7.666;2022-12-20T16:31:23;10.30;92.30
31038;DHT22;17702;47.590;7.666;2022-12-20T16:33:50;10.30;92.50
31038;DHT22;17702;47.590;7.666;2022-12-20T16:36:15;10.30;92.20
31038;DHT22;17702;47.590;7.666;2022-12-20T16:38:41;10.30;92.20
31038;DHT22;17702;47.590;7.666;2022-12-20T16:41:10;10.30;92.40
31038;DHT22;17702;47.590;7.666;2022-12-20T16:43:36;10.30;92.00
31038;DHT22;17702;47.590;7.666;2022-12-20T16:46:02;10.30;92.30
31038;DHT22;17702;47.590;7.666;2022-12-20T16:48:28;10.20;92.40
31038;DHT22;17702;47.590;7.666;2022-12-20T16:50:53;10.20;92.30
31038;DHT22;17702;47.590;7.666;2022-12-20T16:53:19;10.20;92.00
31038;DHT22;17702;47.590;7.666;2022-12-20T16:55:44;10.20;92.10
31038;DHT22;17702;47.590;7.666;2022-12-20T16:58:10;10.20;92.20
31038;DHT22;17702;47.590;7.666;2022-12-20T17:00:36;10.20;92.00
31038;DHT22;17702;47.590;7.666;2022-12-20T17:03:02;10.20;92.40
31038;DHT22;17702;47.590;7.666;2022-12-20T17:05:29;10.20;92.30
31038;DHT22;17702;47.590;7.666;2022-12-20T17:07:54;10.20;92.40
31038;DHT22;17702;47.590;7.666;2022-12-20T17:10:21;10.20;92.40
31038;DHT22;17702;47.590;7.666;2022-12-20T17:12:47;10.10;92.50
31038;DHT22;17702;47.590;7.666;2022-12-20T17:15:17;10.10;92.60
31038;DHT22;17702;47.590;7.666;2022-12-20T17:17:43;10.10;92.60